createdAt,value
2023-04-13T00:00:46.742Z,6.75
2023-04-13T00:05:40.342Z,7.53
2023-04-13T00:10:36.347Z,6.55
2023-04-13T00:15:29.732Z,5.63
2023-04-13T00:20:24.415Z,6.15
2023-04-13T00:25:18.103Z,5.57
2023-04-13T00:30:13.119Z,7.35
2023-04-13T00:35:09.617Z,7.95
2023-04-13T00:40:05.909Z,5.32
2023-04-13T00:44:59.059Z,8.45
2023-04-13T00:49:53.151Z,7.03
2023-04-13T00:54:46.461Z,6.95
2023-04-13T00:59:41.072Z,4.95
2023-04-13T01:04:38.110Z,5.97
2023-04-13T01:09:36.307Z,5.15
2023-04-13T01:14:37.529Z,5.75
2023-04-13T01:19:51.654Z,5.25
2023-04-13T01:29:49.006Z,5.00
2023-04-13T01:34:42.164Z,7.13
2023-04-13T01:39:35.657Z,6.35
2023-04-13T01:44:38.248Z,5.75
2023-04-13T01:49:33.964Z,6.45
2023-04-13T01:54:43.756Z,5.32
2023-04-13T01:59:37.799Z,6.93
2023-04-13T02:04:32.440Z,5.75
2023-04-13T02:09:28.315Z,5.78
2023-04-13T02:14:21.763Z,4.75
2023-04-13T02:19:16.275Z,5.57
2023-04-13T02:24:10.985Z,8.68
2023-04-13T02:29:05.761Z,5.63
2023-04-13T02:33:59.382Z,5.60
2023-04-13T02:38:53.211Z,4.60
2023-04-13T02:43:56.021Z,4.40
2023-04-13T02:48:51.919Z,5.72
2023-04-13T02:53:45.777Z,5.10
2023-04-13T02:58:39.367Z,6.95
2023-04-13T03:03:41.452Z,4.55
2023-04-13T03:08:35.842Z,6.85
2023-04-13T03:13:33.818Z,6.57
2023-04-13T03:18:27.681Z,8.05
2023-04-13T03:23:22.810Z,6.85
2023-04-13T03:28:16.103Z,13.30
2023-04-13T03:33:11.774Z,13.30
2023-04-13T03:38:05.946Z,14.52
2023-04-13T03:43:04.795Z,7.30
2023-04-13T03:48:01.960Z,5.95
2023-04-13T03:52:55.364Z,10.07
2023-04-13T03:57:49.858Z,11.20
2023-04-13T04:02:49.494Z,7.45
2023-04-13T04:07:51.678Z,7.80
2023-04-13T04:12:44.980Z,8.07
2023-04-13T04:17:40.080Z,6.32
2023-04-13T04:22:36.726Z,9.48
2023-04-13T04:27:37.937Z,6.70
2023-04-13T04:32:34.589Z,8.52
2023-04-13T04:37:30.003Z,6.32
2023-04-13T04:42:30.165Z,9.02
2023-04-13T04:47:30.210Z,13.45
2023-04-13T04:52:34.344Z,8.63
2023-04-13T04:57:31.560Z,7.85
2023-04-13T05:02:24.891Z,6.55
2023-04-13T05:07:19.107Z,9.20
2023-04-13T05:12:12.591Z,9.77
2023-04-13T05:17:10.351Z,9.75
2023-04-13T05:22:06.500Z,9.98
2023-04-13T05:27:08.484Z,12.07
2023-04-13T05:32:03.199Z,8.02
2023-04-13T05:36:58.310Z,6.53
2023-04-13T05:41:51.791Z,8.07
2023-04-13T05:46:45.927Z,9.90
2023-04-13T05:51:40.110Z,9.50
2023-04-13T05:56:35.529Z,6.60
2023-04-13T06:01:29.727Z,6.07
2023-04-13T06:06:23.340Z,5.03
2023-04-13T06:11:17.046Z,8.13
2023-04-13T06:16:12.003Z,6.03
2023-04-13T06:21:05.623Z,5.20
2023-04-13T06:25:59.391Z,7.35
2023-04-13T06:31:13.757Z,9.00
2023-04-13T06:36:12.017Z,4.53
2023-04-13T06:41:06.963Z,5.85
2023-04-13T06:46:05.386Z,7.05
2023-04-13T06:51:03.676Z,9.10
2023-04-13T06:56:01.787Z,13.88
2023-04-13T07:00:56.623Z,10.38
2023-04-13T07:05:51.213Z,6.55
2023-04-13T07:10:54.260Z,9.20
2023-04-13T07:16:05.146Z,5.80
2023-04-13T07:21:03.924Z,7.50
2023-04-13T07:26:07.418Z,6.88
2023-04-13T07:31:06.649Z,12.07
2023-04-13T07:36:00.436Z,6.50
2023-04-13T07:40:59.354Z,7.13
2023-04-13T07:45:56.554Z,6.47
2023-04-13T07:50:53.588Z,5.55
2023-04-13T07:55:50.016Z,8.43
2023-04-13T08:00:43.403Z,8.43
2023-04-13T08:05:37.570Z,6.60
2023-04-13T08:10:47.581Z,7.03
2023-04-13T08:16:02.829Z,5.18
2023-04-13T08:21:03.876Z,5.88
2023-04-13T08:26:20.910Z,6.30
2023-04-13T08:31:52.116Z,8.60
2023-04-13T08:36:52.772Z,7.38
2023-04-13T08:41:48.866Z,5.75
2023-04-13T08:46:46.817Z,7.65
2023-04-13T08:51:54.761Z,4.88
2023-04-13T08:56:50.359Z,4.85
2023-04-13T09:01:50.552Z,8.40
2023-04-13T09:06:51.455Z,5.25
2023-04-13T09:11:49.159Z,5.35
2023-04-13T09:16:49.963Z,5.72
2023-04-13T09:22:27.164Z,6.22
2023-04-13T09:27:36.251Z,5.28
2023-04-13T09:33:05.708Z,7.18
2023-04-13T09:44:27.395Z,6.82
2023-04-13T09:49:22.747Z,5.03
2023-04-13T09:54:22.181Z,5.20
2023-04-13T09:59:16.026Z,5.47
2023-04-13T10:04:10.675Z,6.75
2023-04-13T10:09:06.141Z,8.25
2023-04-13T10:14:02.890Z,4.20
2023-04-13T10:19:02.019Z,4.13
2023-04-13T10:23:57.069Z,3.30
2023-04-13T10:28:51.947Z,8.80
2023-04-13T10:33:49.594Z,2.70
2023-04-13T10:38:49.256Z,6.25
2023-04-13T10:48:44.221Z,3.50
2023-04-13T10:53:37.928Z,3.70
2023-04-13T10:58:34.672Z,4.65
2023-04-13T11:03:29.279Z,4.07
2023-04-13T11:08:28.204Z,7.60
2023-04-13T11:13:32.300Z,4.97
2023-04-13T11:18:29.172Z,4.70
2023-04-13T11:23:24.461Z,3.22
2023-04-13T11:28:19.606Z,5.38
2023-04-13T11:33:13.114Z,3.17
2023-04-13T11:38:06.871Z,7.35
2023-04-13T11:43:03.537Z,7.53
2023-04-13T11:48:00.750Z,2.78
2023-04-13T11:52:57.024Z,4.13
2023-04-13T11:57:50.884Z,4.25
2023-04-13T12:02:59.968Z,3.42
2023-04-13T12:07:58.660Z,2.90
2023-04-13T12:13:16.958Z,3.38
2023-04-13T12:18:15.974Z,3.47
2023-04-13T12:23:23.413Z,3.20
2023-04-13T12:28:19.710Z,3.28
2023-04-13T12:33:13.637Z,3.20
2023-04-13T12:38:09.958Z,4.05
2023-04-13T12:43:05.283Z,3.03
2023-04-13T12:47:58.853Z,5.63
2023-04-13T12:52:53.778Z,4.18
2023-04-13T12:57:47.305Z,4.38
2023-04-13T13:02:42.399Z,4.18
2023-04-13T13:07:36.893Z,3.97
2023-04-13T13:12:32.269Z,4.43
2023-04-13T13:17:25.821Z,2.42
2023-04-13T13:22:20.655Z,2.55
2023-04-13T13:27:50.653Z,3.13
2023-04-13T13:32:34.305Z,3.90
2023-04-13T13:37:29.075Z,5.60
2023-04-13T13:42:22.386Z,3.67
2023-04-13T13:47:16.166Z,4.35
2023-04-13T13:52:15.945Z,4.32
2023-04-13T13:57:17.512Z,2.25
2023-04-13T14:02:11.097Z,4.07
2023-04-13T14:07:06.668Z,5.75
2023-04-13T14:12:02.097Z,5.05
2023-04-13T14:16:56.840Z,3.95
2023-04-13T14:21:50.532Z,5.95
2023-04-13T14:26:43.720Z,2.17
2023-04-13T14:31:39.597Z,2.83
2023-04-13T14:36:34.501Z,2.05
2023-04-13T14:41:31.065Z,3.42
2023-04-13T14:46:24.369Z,4.97
2023-04-13T14:51:18.558Z,3.83
2023-04-13T14:56:13.058Z,3.65
2023-04-13T15:01:19.923Z,6.95
2023-04-13T15:06:14.181Z,2.45
2023-04-13T15:11:07.832Z,6.35
2023-04-13T15:16:02.714Z,4.10
2023-04-13T15:20:55.960Z,3.28
2023-04-13T15:25:49.375Z,9.32
2023-04-13T15:30:43.335Z,6.85
2023-04-13T15:35:37.910Z,3.13
2023-04-13T15:40:33.985Z,6.05
2023-04-13T15:45:27.208Z,3.47
2023-04-13T15:50:20.531Z,3.95
2023-04-13T15:55:15.499Z,5.28
2023-04-13T16:00:09.773Z,4.28
2023-04-13T16:05:03.208Z,8.02
2023-04-13T16:09:58.354Z,4.78
2023-04-13T16:14:56.000Z,5.22
2023-04-13T16:19:51.839Z,6.50
2023-04-13T16:24:45.094Z,5.35
2023-04-13T16:29:41.508Z,4.50
2023-04-13T16:34:41.253Z,4.15
2023-04-13T16:39:34.428Z,10.63
2023-04-13T16:44:27.660Z,9.30
2023-04-13T16:49:20.825Z,16.38
2023-04-13T16:54:17.933Z,8.45
2023-04-13T16:59:11.105Z,8.38
2023-04-13T17:04:04.355Z,13.77
2023-04-13T17:09:00.434Z,13.43
2023-04-13T17:13:55.511Z,13.48
2023-04-13T17:18:48.856Z,16.50
2023-04-13T17:23:43.589Z,12.65
2023-04-13T17:28:39.727Z,9.57
2023-04-13T17:33:34.885Z,12.80
2023-04-13T17:38:31.027Z,14.20
2023-04-13T17:43:24.263Z,7.88
2023-04-13T17:48:21.098Z,7.65
2023-04-13T17:53:15.823Z,10.15
2023-04-13T17:58:10.842Z,8.43
2023-04-13T18:03:05.664Z,8.57
2023-04-13T18:08:01.456Z,10.48
2023-04-13T18:13:00.526Z,12.73
2023-04-13T18:17:56.908Z,19.17
2023-04-13T18:22:50.271Z,23.30
2023-04-13T18:27:44.146Z,26.20
2023-04-13T18:32:38.751Z,22.75
2023-04-13T18:37:37.704Z,11.38
2023-04-13T18:42:32.631Z,16.17
2023-04-13T18:47:27.133Z,13.23
2023-04-13T18:52:23.896Z,10.02
2023-04-13T18:57:17.184Z,8.50
2023-04-13T19:02:10.711Z,7.88
2023-04-13T19:07:08.933Z,11.77
2023-04-13T19:12:03.941Z,7.80
2023-04-13T19:16:59.988Z,8.68
2023-04-13T19:21:57.019Z,5.40
2023-04-13T19:26:53.020Z,5.28
2023-04-13T19:31:48.487Z,4.25
2023-04-13T19:36:42.816Z,3.85
2023-04-13T19:41:38.624Z,7.05
2023-04-13T19:46:32.876Z,6.32
2023-04-13T19:51:28.000Z,6.35
2023-04-13T19:56:35.181Z,6.82
2023-04-13T20:01:33.793Z,4.28
2023-04-13T20:06:28.628Z,5.20
2023-04-13T20:11:22.021Z,5.05
2023-04-13T20:16:18.725Z,4.88
2023-04-13T20:21:21.386Z,7.03
2023-04-13T20:26:16.154Z,6.80
2023-04-13T20:31:09.536Z,6.10
2023-04-13T20:36:03.495Z,7.18
2023-04-13T20:40:57.627Z,6.40
2023-04-13T20:45:53.192Z,6.00
2023-04-13T20:50:48.205Z,8.00
2023-04-13T20:55:42.267Z,7.13
2023-04-13T21:00:35.801Z,9.40
2023-04-13T21:05:33.007Z,6.82
2023-04-13T21:10:26.422Z,8.32
2023-04-13T21:15:25.244Z,5.47
2023-04-13T21:20:18.530Z,5.28
2023-04-13T21:25:13.344Z,4.82
2023-04-13T21:30:07.881Z,6.55
2023-04-13T21:35:01.262Z,6.28
2023-04-13T21:39:54.940Z,5.93
2023-04-13T21:44:52.717Z,9.77
2023-04-13T21:49:45.991Z,7.25
2023-04-13T21:54:39.178Z,6.55
2023-04-13T21:59:32.492Z,5.53
2023-04-13T22:04:27.384Z,5.90
2023-04-13T22:09:20.966Z,6.18
2023-04-13T22:14:14.229Z,5.78
2023-04-13T22:19:07.482Z,6.07
2023-04-13T22:24:02.143Z,6.68
2023-04-13T22:28:55.793Z,8.75
2023-04-13T22:33:49.083Z,8.40
2023-04-13T22:38:42.286Z,8.50
2023-04-13T22:43:37.049Z,7.68
2023-04-13T22:48:30.998Z,7.13
2023-04-13T22:53:24.235Z,9.80
2023-04-13T22:58:17.633Z,9.65
2023-04-13T23:03:13.252Z,10.00
2023-04-13T23:08:06.649Z,11.98
2023-04-13T23:13:00.461Z,12.98
2023-04-13T23:17:55.804Z,8.40
2023-04-13T23:22:50.829Z,9.23
2023-04-13T23:27:44.050Z,11.52
2023-04-13T23:32:37.540Z,13.88
2023-04-13T23:37:30.883Z,10.10
2023-04-13T23:42:25.820Z,19.15
2023-04-13T23:47:19.022Z,12.35
2023-04-13T23:52:12.236Z,13.35
2023-04-13T23:57:05.599Z,17.27
